Time;durP1;ratioP1;P1;durP2;ratioP2;P2;SDS_P1;SDS_P2;PMS_P1;PMS_P2;Temp;Humidity;BMP_temperature;BMP_pressure;BME280_temperature;BME280_humidity;BME280_pressure;Samples;Min_cycle;Max_cycle;Signal;HPM_P1;HPM_P2
2024/01/26 00:00:35;;;;;;;58.33;20.55;;;;;;;;;;5051956;28;20037;-61
2024/01/26 00:03:01;;;;;;;62.42;22.38;;;;;;;;;;5051317;28;20028;-61
2024/01/26 00:05:26;;;;;;;62.33;21.50;;;;;;;;;;5050553;28;20378;-61
2024/01/26 00:07:51;;;;;;;62.00;20.33;;;;;;;;;;5050566;28;20033;-61
2024/01/26 00:10:17;;;;;;;63.30;21.25;;;;;;;;;;5042490;28;20041;-60
2024/01/26 00:12:42;;;;;;;63.47;22.17;;;;;;;;;;5048003;28;20427;-61
2024/01/26 00:15:08;;;;;;;60.65;20.67;;;;;;;;;;5053028;28;20036;-60
2024/01/26 00:17:33;;;;;;;63.55;22.05;;;;;;;;;;5052222;28;20064;-60
2024/01/26 00:19:59;;;;;;;60.17;21.42;;;;;;;;;;5050845;28;20033;-61
2024/01/26 00:22:24;;;;;;;58.88;21.02;;;;;;;;;;5051043;28;20398;-61
2024/01/26 00:24:50;;;;;;;66.13;22.17;;;;;;;;;;5047858;28;20036;-60
2024/01/26 00:27:15;;;;;;;67.20;22.05;;;;;;;;;;5053127;28;20029;-61
2024/01/26 00:29:41;;;;;;;55.83;21.58;;;;;;;;;;5049830;28;20045;-61
2024/01/26 00:32:06;;;;;;;60.30;20.50;;;;;;;;;;5051389;28;20033;-61
2024/01/26 00:34:33;;;;;;;63.28;21.98;;;;;;;;;;5051881;28;20073;-61
2024/01/26 00:37:00;;;;;;;65.55;21.42;;;;;;;;;;5050147;28;20123;-60
2024/01/26 00:39:26;;;;;;;57.45;20.35;;;;;;;;;;5034447;28;20044;-61
2024/01/26 00:41:51;;;;;;;64.97;21.88;;;;;;;;;;5049763;28;20043;-61
2024/01/26 00:44:16;;;;;;;64.40;21.40;;;;;;;;;;5041155;28;20112;-61
2024/01/26 00:46:42;;;;;;;69.15;23.13;;;;;;;;;;5050523;28;20029;-61
2024/01/26 00:49:08;;;;;;;67.85;22.90;;;;;;;;;;5051626;28;20061;-60
2024/01/26 00:51:33;;;;;;;68.95;21.90;;;;;;;;;;5051017;28;20029;-60
2024/01/26 00:53:59;;;;;;;74.88;24.33;;;;;;;;;;5046836;28;20028;-60
2024/01/26 00:56:24;;;;;;;73.30;23.52;;;;;;;;;;5049904;28;20035;-61
2024/01/26 00:58:50;;;;;;;73.57;23.20;;;;;;;;;;5049439;28;20075;-60
2024/01/26 01:01:15;;;;;;;80.78;25.15;;;;;;;;;;5051159;28;20098;-60
2024/01/26 01:03:40;;;;;;;85.25;24.85;;;;;;;;;;5050147;28;20059;-61
2024/01/26 01:06:06;;;;;;;83.55;25.45;;;;;;;;;;5051322;28;20094;-61
2024/01/26 01:08:31;;;;;;;79.53;25.60;;;;;;;;;;5050043;28;20401;-61
2024/01/26 01:10:57;;;;;;;88.70;27.25;;;;;;;;;;5046759;28;20060;-60
2024/01/26 01:13:22;;;;;;;90.57;27.45;;;;;;;;;;5045576;28;20063;-60
2024/01/26 01:15:48;;;;;;;84.68;25.67;;;;;;;;;;5050474;28;20492;-60
2024/01/26 01:18:13;;;;;;;80.35;26.17;;;;;;;;;;5052201;28;20481;-60
2024/01/26 01:20:38;;;;;;;96.32;27.27;;;;;;;;;;5048461;28;20036;-61
2024/01/26 01:23:04;;;;;;;87.47;27.27;;;;;;;;;;5045996;28;20531;-60
2024/01/26 01:25:30;;;;;;;83.25;26.40;;;;;;;;;;5051117;28;20037;-60
2024/01/26 01:27:55;;;;;;;80.45;26.75;;;;;;;;;;5049083;28;20067;-61
2024/01/26 01:30:21;;;;;;;85.43;26.42;;;;;;;;;;5049744;28;20033;-61
2024/01/26 01:32:46;;;;;;;82.95;25.88;;;;;;;;;;5045695;28;20489;-61
2024/01/26 01:35:11;;;;;;;79.95;27.38;;;;;;;;;;5049838;28;20071;-61
2024/01/26 01:37:37;;;;;;;84.90;27.35;;;;;;;;;;5047656;28;20029;-60
2024/01/26 01:40:03;;;;;;;80.28;26.65;;;;;;;;;;5034277;28;20112;-60
2024/01/26 01:42:28;;;;;;;84.45;27.45;;;;;;;;;;5046363;28;20037;-60
2024/01/26 01:44:53;;;;;;;91.40;27.02;;;;;;;;;;5045035;28;20430;-60
2024/01/26 01:47:19;;;;;;;88.03;28.30;;;;;;;;;;5050934;28;20417;-61
2024/01/26 01:49:44;;;;;;;89.43;27.00;;;;;;;;;;5050862;28;20025;-61
2024/01/26 01:52:13;;;;;;;89.63;28.27;;;;;;;;;;5048360;28;20412;-60
2024/01/26 01:54:40;;;;;;;91.60;27.80;;;;;;;;;;5048746;28;20497;-61
2024/01/26 01:57:06;;;;;;;87.32;27.58;;;;;;;;;;5050661;28;20029;-61
2024/01/26 01:59:32;;;;;;;91.22;27.75;;;;;;;;;;5047705;28;20055;-61
2024/01/26 02:01:58;;;;;;;86.55;27.77;;;;;;;;;;5050295;28;20413;-61
2024/01/26 02:04:23;;;;;;;89.35;28.05;;;;;;;;;;5049618;28;20056;-61
2024/01/26 02:06:57;;;;;;;84.32;26.45;;;;;;;;;;5049690;28;20124;-62
2024/01/26 02:09:23;;;;;;;84.88;26.73;;;;;;;;;;5048735;28;20025;-61
2024/01/26 02:11:49;;;;;;;83.05;27.20;;;;;;;;;;5045551;28;20059;-62
2024/01/26 02:14:14;;;;;;;80.07;26.75;;;;;;;;;;5048192;28;20032;-61
2024/01/26 02:16:39;;;;;;;77.25;25.98;;;;;;;;;;5051393;28;20525;-60
2024/01/26 02:19:05;;;;;;;81.22;27.30;;;;;;;;;;5047548;28;20044;-60
2024/01/26 02:21:30;;;;;;;87.82;27.95;;;;;;;;;;5048872;28;20146;-60
2024/01/26 02:23:56;;;;;;;82.90;27.20;;;;;;;;;;5047212;28;20397;-61
2024/01/26 02:26:21;;;;;;;84.65;26.25;;;;;;;;;;5045071;28;20037;-61
2024/01/26 02:28:46;;;;;;;80.50;27.20;;;;;;;;;;5047172;28;20063;-61
2024/01/26 02:31:12;;;;;;;75.40;24.67;;;;;;;;;;5049091;28;20132;-61
2024/01/26 02:33:37;;;;;;;76.25;26.23;;;;;;;;;;5049057;28;20040;-60
2024/01/26 02:36:03;;;;;;;77.63;26.50;;;;;;;;;;5046547;28;20097;-61
2024/01/26 02:38:28;;;;;;;77.22;26.33;;;;;;;;;;5046088;28;20036;-60
2024/01/26 02:40:54;;;;;;;80.78;27.88;;;;;;;;;;5047482;28;20495;-61
2024/01/26 02:43:19;;;;;;;77.80;28.90;;;;;;;;;;5053049;28;20660;-59
2024/01/26 02:45:47;;;;;;;84.68;28.20;;;;;;;;;;5051664;28;20033;-60
2024/01/26 02:48:13;;;;;;;78.05;27.85;;;;;;;;;;5043156;28;20029;-60
2024/01/26 02:50:38;;;;;;;77.25;26.30;;;;;;;;;;5052087;28;20033;-60
2024/01/26 02:53:03;;;;;;;84.15;27.92;;;;;;;;;;5051683;28;20776;-60
2024/01/26 02:55:29;;;;;;;88.60;27.67;;;;;;;;;;5048915;28;20032;-61
2024/01/26 02:57:54;;;;;;;74.72;26.92;;;;;;;;;;5051092;28;20551;-61
2024/01/26 03:00:20;;;;;;;84.60;27.05;;;;;;;;;;5051754;28;20184;-60
2024/01/26 03:02:45;;;;;;;86.47;27.27;;;;;;;;;;5035573;28;20033;-61
2024/01/26 03:05:11;;;;;;;83.53;26.70;;;;;;;;;;5044486;28;20032;-60
2024/01/26 03:07:36;;;;;;;84.45;26.95;;;;;;;;;;5053039;28;20060;-60
2024/01/26 03:10:02;;;;;;;82.82;26.55;;;;;;;;;;5050109;28;20065;-61
2024/01/26 03:12:28;;;;;;;76.25;26.63;;;;;;;;;;5052453;28;20037;-60
2024/01/26 03:14:53;;;;;;;74.35;26.13;;;;;;;;;;5052369;28;20025;-61
2024/01/26 03:17:19;;;;;;;80.65;26.02;;;;;;;;;;5053170;28;20033;-61
2024/01/26 03:19:44;;;;;;;75.20;26.02;;;;;;;;;;5053386;28;20033;-62
2024/01/26 03:22:10;;;;;;;75.82;26.08;;;;;;;;;;5052296;28;20425;-61
2024/01/26 03:24:35;;;;;;;78.30;26.83;;;;;;;;;;5051761;28;20108;-62
2024/01/26 03:27:00;;;;;;;77.15;26.50;;;;;;;;;;5052064;28;20060;-60
2024/01/26 03:29:26;;;;;;;75.38;26.17;;;;;;;;;;5049711;28;20421;-65
2024/01/26 03:31:51;;;;;;;65.35;24.92;;;;;;;;;;5051049;28;20124;-60
2024/01/26 03:34:16;;;;;;;70.50;24.70;;;;;;;;;;5052271;28;20136;-61
2024/01/26 03:36:42;;;;;;;68.82;25.35;;;;;;;;;;5051187;28;20040;-61
2024/01/26 03:39:09;;;;;;;65.13;25.40;;;;;;;;;;5048456;28;20095;-61
2024/01/26 03:41:39;;;;;;;62.85;24.85;;;;;;;;;;5050023;28;20115;-60
2024/01/26 03:44:05;;;;;;;60.90;25.30;;;;;;;;;;5051268;28;20037;-61
2024/01/26 03:46:30;;;;;;;61.95;25.15;;;;;;;;;;5049455;28;20045;-60
2024/01/26 03:48:56;;;;;;;62.03;23.77;;;;;;;;;;5040456;28;20020;-62
2024/01/26 03:51:21;;;;;;;64.78;23.83;;;;;;;;;;5037513;28;20065;-60
2024/01/26 03:53:46;;;;;;;71.70;25.02;;;;;;;;;;5048319;28;20158;-60
2024/01/26 03:56:12;;;;;;;62.33;24.08;;;;;;;;;;5050538;28;20050;-60
2024/01/26 03:58:37;;;;;;;58.28;22.70;;;;;;;;;;5049547;28;20030;-61
2024/01/26 04:01:03;;;;;;;58.72;22.73;;;;;;;;;;5046757;28;20033;-61
2024/01/26 04:03:28;;;;;;;50.47;20.77;;;;;;;;;;5051526;28;20029;-60
2024/01/26 04:05:53;;;;;;;55.17;21.90;;;;;;;;;;5048599;28;20025;-61
2024/01/26 04:08:19;;;;;;;47.50;19.42;;;;;;;;;;5051457;28;20033;-60
2024/01/26 04:10:44;;;;;;;47.30;18.85;;;;;;;;;;5042997;28;20388;-61
2024/01/26 04:13:09;;;;;;;42.28;17.33;;;;;;;;;;5041413;28;20151;-60
2024/01/26 04:15:35;;;;;;;39.47;17.58;;;;;;;;;;5052614;28;20035;-61
2024/01/26 04:18:00;;;;;;;40.88;17.60;;;;;;;;;;5038019;28;20056;-62
2024/01/26 04:20:25;;;;;;;37.35;16.42;;;;;;;;;;5033208;28;20053;-59
2024/01/26 04:22:51;;;;;;;30.42;15.02;;;;;;;;;;5038816;28;20041;-62
2024/01/26 04:25:16;;;;;;;31.92;14.70;;;;;;;;;;5049862;28;20024;-60
2024/01/26 04:27:42;;;;;;;37.35;15.27;;;;;;;;;;5048457;28;20048;-62
2024/01/26 04:30:08;;;;;;;28.60;13.65;;;;;;;;;;5048852;28;20112;-60
2024/01/26 04:32:34;;;;;;;30.80;13.20;;;;;;;;;;5046624;28;20036;-60
2024/01/26 04:35:00;;;;;;;26.98;12.30;;;;;;;;;;5048025;28;20037;-60
2024/01/26 04:37:25;;;;;;;25.60;12.23;;;;;;;;;;5048465;28;20484;-60
2024/01/26 04:39:51;;;;;;;23.23;11.02;;;;;;;;;;5050454;28;20389;-62
2024/01/26 04:42:16;;;;;;;22.00;10.85;;;;;;;;;;5050447;28;20366;-61
2024/01/26 04:44:42;;;;;;;23.35;11.73;;;;;;;;;;5050956;28;20033;-62
2024/01/26 04:47:07;;;;;;;23.15;11.27;;;;;;;;;;5039865;28;20026;-61
2024/01/26 04:49:33;;;;;;;22.08;11.13;;;;;;;;;;5041936;28;20033;-61
2024/01/26 04:52:01;;;;;;;21.27;10.45;;;;;;;;;;5050751;28;20428;-62
2024/01/26 04:54:26;;;;;;;21.20;10.93;;;;;;;;;;5047382;28;20037;-62
2024/01/26 04:56:52;;;;;;;20.05;10.27;;;;;;;;;;5046232;28;20139;-61
2024/01/26 04:59:17;;;;;;;17.35;9.43;;;;;;;;;;5050341;28;20025;-61
2024/01/26 05:01:42;;;;;;;17.40;9.57;;;;;;;;;;5037261;28;20761;-62
2024/01/26 05:04:08;;;;;;;16.60;9.60;;;;;;;;;;5048039;28;20116;-62
2024/01/26 05:06:33;;;;;;;17.80;9.25;;;;;;;;;;5049697;28;20112;-63
2024/01/26 05:08:59;;;;;;;17.33;8.38;;;;;;;;;;5048609;28;20450;-62
2024/01/26 05:11:24;;;;;;;19.75;8.80;;;;;;;;;;5050682;28;20020;-61
2024/01/26 05:13:49;;;;;;;16.60;8.88;;;;;;;;;;5050916;28;20029;-61
2024/01/26 05:16:15;;;;;;;15.73;8.80;;;;;;;;;;5049519;28;20319;-62
2024/01/26 05:18:40;;;;;;;16.35;8.32;;;;;;;;;;5050337;28;20397;-59
2024/01/26 05:21:06;;;;;;;16.02;8.63;;;;;;;;;;5050435;28;20446;-62
2024/01/26 05:23:31;;;;;;;13.57;7.70;;;;;;;;;;5050040;28;20074;-61
2024/01/26 05:25:56;;;;;;;12.40;6.90;;;;;;;;;;5037706;28;20025;-60
2024/01/26 05:28:22;;;;;;;12.57;7.55;;;;;;;;;;5044522;28;20029;-60
2024/01/26 05:30:48;;;;;;;14.50;7.45;;;;;;;;;;5050996;28;20029;-62
2024/01/26 05:33:13;;;;;;;12.05;6.93;;;;;;;;;;5046502;28;20627;-60
2024/01/26 05:35:39;;;;;;;11.32;6.93;;;;;;;;;;5051156;28;20028;-61
2024/01/26 05:38:04;;;;;;;10.73;6.60;;;;;;;;;;5047366;28;20033;-61
2024/01/26 05:40:30;;;;;;;10.00;6.10;;;;;;;;;;5048479;28;20029;-61
2024/01/26 05:42:55;;;;;;;11.68;6.60;;;;;;;;;;5050360;28;20416;-61
2024/01/26 05:45:20;;;;;;;11.57;6.03;;;;;;;;;;5051036;28;20136;-62
2024/01/26 05:47:47;;;;;;;11.05;6.07;;;;;;;;;;5049200;28;20029;-61
2024/01/26 05:50:14;;;;;;;9.60;5.38;;;;;;;;;;5050094;28;20032;-61
2024/01/26 05:52:40;;;;;;;7.90;4.70;;;;;;;;;;5050890;28;20025;-61
2024/01/26 05:55:07;;;;;;;9.18;4.95;;;;;;;;;;5046991;28;20043;-61
2024/01/26 05:57:32;;;;;;;7.28;4.70;;;;;;;;;;5047770;28;20032;-60
2024/01/26 05:59:58;;;;;;;7.20;4.38;;;;;;;;;;5033249;28;20033;-61
2024/01/26 06:02:23;;;;;;;8.10;4.68;;;;;;;;;;5050983;28;20502;-61
2024/01/26 06:04:48;;;;;;;8.88;4.47;;;;;;;;;;5050513;28;20029;-61
2024/01/26 06:07:14;;;;;;;7.47;4.53;;;;;;;;;;5047185;28;20024;-61
2024/01/26 06:09:39;;;;;;;7.28;4.07;;;;;;;;;;5048431;28;20033;-61
2024/01/26 06:12:05;;;;;;;6.60;3.90;;;;;;;;;;5049344;28;20033;-62
2024/01/26 06:14:31;;;;;;;7.18;4.05;;;;;;;;;;5050181;28;20531;-60
2024/01/26 06:16:56;;;;;;;6.07;3.90;;;;;;;;;;5040811;28;20041;-60
2024/01/26 06:19:21;;;;;;;8.40;4.00;;;;;;;;;;5050937;28;20385;-62
2024/01/26 06:21:47;;;;;;;8.07;4.05;;;;;;;;;;5042374;28;20033;-59
2024/01/26 06:24:12;;;;;;;7.82;4.00;;;;;;;;;;5054593;28;20090;-61
2024/01/26 06:26:38;;;;;;;6.38;3.75;;;;;;;;;;5048081;28;20238;-60
2024/01/26 06:29:03;;;;;;;7.40;3.70;;;;;;;;;;5058778;28;20021;-63
2024/01/26 06:31:29;;;;;;;5.57;3.35;;;;;;;;;;5044778;28;20038;-62
2024/01/26 06:33:54;;;;;;;6.78;3.85;;;;;;;;;;5035538;28;20029;-62
2024/01/26 06:36:20;;;;;;;6.65;3.60;;;;;;;;;;5046655;28;20029;-62
2024/01/26 06:38:45;;;;;;;9.00;4.13;;;;;;;;;;5055110;28;20036;-64
2024/01/26 06:41:11;;;;;;;5.88;3.20;;;;;;;;;;5054062;28;20112;-62
2024/01/26 06:43:36;;;;;;;8.15;3.78;;;;;;;;;;5054979;28;20032;-63
2024/01/26 06:46:01;;;;;;;8.20;4.13;;;;;;;;;;5053034;28;20043;-64
2024/01/26 06:48:27;;;;;;;8.50;3.45;;;;;;;;;;5051304;28;20071;-63
2024/01/26 06:50:53;;;;;;;7.45;3.42;;;;;;;;;;5034881;28;20036;-63
2024/01/26 06:53:19;;;;;;;5.57;3.15;;;;;;;;;;5050386;28;20033;-62
2024/01/26 06:55:45;;;;;;;6.28;3.30;;;;;;;;;;5054596;28;20025;-63
2024/01/26 06:58:10;;;;;;;6.45;2.90;;;;;;;;;;5046092;28;20031;-62
2024/01/26 07:00:35;;;;;;;5.22;3.00;;;;;;;;;;5035025;28;20033;-61
2024/01/26 07:03:01;;;;;;;9.25;3.60;;;;;;;;;;5034120;28;20025;-62
2024/01/26 07:05:26;;;;;;;6.82;3.10;;;;;;;;;;5040824;28;20029;-61
2024/01/26 07:07:54;;;;;;;6.80;2.90;;;;;;;;;;5054496;28;20040;-62
2024/01/26 07:10:19;;;;;;;5.22;3.25;;;;;;;;;;5053739;28;20029;-62
2024/01/26 07:12:45;;;;;;;7.15;3.30;;;;;;;;;;5054862;28;20029;-61
2024/01/26 07:15:10;;;;;;;5.65;2.95;;;;;;;;;;5053506;28;20116;-62
2024/01/26 07:17:36;;;;;;;4.55;2.50;;;;;;;;;;5054533;28;20107;-61
2024/01/26 07:20:03;;;;;;;5.70;3.05;;;;;;;;;;5053293;28;20143;-63
2024/01/26 07:22:29;;;;;;;6.20;2.65;;;;;;;;;;5053932;28;20072;-62
2024/01/26 07:24:54;;;;;;;8.07;3.20;;;;;;;;;;5054222;28;20083;-61
2024/01/26 07:27:20;;;;;;;4.63;2.75;;;;;;;;;;5053399;28;20107;-61
2024/01/26 07:29:47;;;;;;;3.67;2.20;;;;;;;;;;5052407;28;20078;-61
2024/01/26 07:32:13;;;;;;;5.07;2.42;;;;;;;;;;5052470;28;20041;-62
2024/01/26 07:34:38;;;;;;;3.80;2.40;;;;;;;;;;5035334;28;20044;-62
2024/01/26 07:37:04;;;;;;;4.95;2.20;;;;;;;;;;5051355;28;20028;-61
2024/01/26 07:39:29;;;;;;;3.25;2.10;;;;;;;;;;5053811;28;20120;-61
2024/01/26 07:41:54;;;;;;;4.88;2.28;;;;;;;;;;5053997;28;20029;-61
2024/01/26 07:44:20;;;;;;;5.97;2.28;;;;;;;;;;5053031;28;20089;-61
2024/01/26 07:46:45;;;;;;;3.65;2.10;;;;;;;;;;5039277;28;20041;-60
2024/01/26 07:49:10;;;;;;;4.43;2.10;;;;;;;;;;5032861;28;20087;-60
2024/01/26 07:51:36;;;;;;;4.38;2.25;;;;;;;;;;5049727;28;20064;-61
2024/01/26 07:54:02;;;;;;;4.22;2.35;;;;;;;;;;5047296;28;20033;-61
2024/01/26 07:56:27;;;;;;;4.15;2.30;;;;;;;;;;5043273;28;20413;-61
2024/01/26 07:58:53;;;;;;;4.65;2.17;;;;;;;;;;5054682;28;20499;-60
2024/01/26 08:01:18;;;;;;;4.80;2.33;;;;;;;;;;5050817;28;20039;-60
2024/01/26 08:03:44;;;;;;;4.97;2.42;;;;;;;;;;5043957;28;20476;-60
2024/01/26 08:06:09;;;;;;;7.53;2.90;;;;;;;;;;5041513;28;20036;-60
2024/01/26 08:08:35;;;;;;;5.53;2.80;;;;;;;;;;5053735;28;20039;-60
2024/01/26 08:11:01;;;;;;;6.80;2.90;;;;;;;;;;5052919;28;20095;-61
2024/01/26 08:13:26;;;;;;;4.72;2.78;;;;;;;;;;5046009;28;20053;-60
2024/01/26 08:15:51;;;;;;;5.90;3.25;;;;;;;;;;5048559;28;20393;-60
2024/01/26 08:18:17;;;;;;;6.10;3.40;;;;;;;;;;5052658;28;20037;-60
2024/01/26 08:20:42;;;;;;;7.60;3.55;;;;;;;;;;5047406;28;20044;-60
2024/01/26 08:23:08;;;;;;;8.32;3.60;;;;;;;;;;5032688;28;20045;-61
2024/01/26 08:25:33;;;;;;;8.13;4.13;;;;;;;;;;5051942;28;20078;-60
2024/01/26 08:27:58;;;;;;;7.53;3.75;;;;;;;;;;5045948;28;20090;-60
2024/01/26 08:30:24;;;;;;;6.28;3.90;;;;;;;;;;5035352;28;20038;-60
2024/01/26 08:32:51;;;;;;;8.60;4.03;;;;;;;;;;5038603;28;20389;-61
2024/01/26 08:35:16;;;;;;;6.60;4.20;;;;;;;;;;5051741;28;20420;-61
2024/01/26 08:37:42;;;;;;;6.90;4.05;;;;;;;;;;5052704;28;20043;-59
2024/01/26 08:40:09;;;;;;;6.80;4.22;;;;;;;;;;5051356;28;20036;-60
2024/01/26 08:42:35;;;;;;;7.97;4.45;;;;;;;;;;5052860;28;20112;-59
2024/01/26 08:45:01;;;;;;;8.23;4.43;;;;;;;;;;5040940;28;20037;-60
2024/01/26 08:47:26;;;;;;;9.95;5.22;;;;;;;;;;5051042;28;20037;-61
2024/01/26 08:49:51;;;;;;;9.02;4.93;;;;;;;;;;5048278;28;20052;-62
2024/01/26 08:52:17;;;;;;;8.05;4.90;;;;;;;;;;5033589;28;20163;-61
2024/01/26 08:54:42;;;;;;;8.27;5.68;;;;;;;;;;5031900;28;20466;-62
2024/01/26 08:57:08;;;;;;;11.57;6.03;;;;;;;;;;5043293;28;20082;-61
2024/01/26 08:59:33;;;;;;;10.13;6.05;;;;;;;;;;5050357;28;20044;-63
2024/01/26 09:01:58;;;;;;;11.15;7.10;;;;;;;;;;5052120;28;20041;-61
2024/01/26 09:04:24;;;;;;;9.32;5.93;;;;;;;;;;5051469;28;20052;-61
2024/01/26 09:06:49;;;;;;;10.00;6.22;;;;;;;;;;5052066;28;20024;-61
2024/01/26 09:09:15;;;;;;;10.18;7.22;;;;;;;;;;5051373;28;20035;-62
2024/01/26 09:11:40;;;;;;;12.45;8.05;;;;;;;;;;5052211;28;20033;-62
2024/01/26 09:14:06;;;;;;;11.57;7.45;;;;;;;;;;5048287;28;20029;-61
2024/01/26 09:16:31;;;;;;;16.63;9.50;;;;;;;;;;5040832;28;20029;-61
2024/01/26 09:18:57;;;;;;;14.80;8.23;;;;;;;;;;5036686;28;20562;-61
2024/01/26 09:21:22;;;;;;;15.52;8.70;;;;;;;;;;5043845;28;20040;-60
2024/01/26 09:23:48;;;;;;;14.73;9.95;;;;;;;;;;5050717;28;20426;-59
2024/01/26 09:26:13;;;;;;;16.02;10.23;;;;;;;;;;5051189;28;20036;-59
2024/01/26 09:28:39;;;;;;;17.33;10.82;;;;;;;;;;5050910;28;20116;-59
2024/01/26 09:31:04;;;;;;;17.33;10.95;;;;;;;;;;5051360;28;20033;-62
2024/01/26 09:33:30;;;;;;;15.90;9.88;;;;;;;;;;5049307;28;20373;-59
2024/01/26 09:35:56;;;;;;;18.70;10.93;;;;;;;;;;5051366;28;20419;-61
2024/01/26 09:38:25;;;;;;;18.00;11.60;;;;;;;;;;5042878;28;20159;-61
2024/01/26 09:40:51;;;;;;;19.52;10.82;;;;;;;;;;5045467;28;20446;-60
2024/01/26 09:43:16;;;;;;;15.25;10.00;;;;;;;;;;5040038;28;20120;-61
2024/01/26 09:45:42;;;;;;;17.08;9.95;;;;;;;;;;5050443;28;20039;-61
2024/01/26 09:48:09;;;;;;;20.02;12.65;;;;;;;;;;5039279;28;20108;-61
2024/01/26 09:50:35;;;;;;;19.98;12.27;;;;;;;;;;5039904;28;20041;-60
2024/01/26 09:53:02;;;;;;;22.88;12.32;;;;;;;;;;5031103;28;20037;-60
2024/01/26 09:55:31;;;;;;;18.80;11.73;;;;;;;;;;5030904;28;20075;-61
2024/01/26 09:57:56;;;;;;;19.90;12.70;;;;;;;;;;5032880;28;20036;-61
2024/01/26 10:00:22;;;;;;;18.10;11.38;;;;;;;;;;5042190;28;20115;-61
2024/01/26 10:02:49;;;;;;;17.75;10.95;;;;;;;;;;5031633;28;20087;-61
2024/01/26 10:05:17;;;;;;;18.88;11.80;;;;;;;;;;5030945;28;20082;-61
2024/01/26 10:07:44;;;;;;;19.52;10.73;;;;;;;;;;5031218;28;20461;-60
2024/01/26 10:10:10;;;;;;;16.65;10.43;;;;;;;;;;5030763;28;20030;-61
2024/01/26 10:12:36;;;;;;;16.05;10.73;;;;;;;;;;5031609;28;20033;-61
2024/01/26 10:15:11;;;;;;;14.15;9.35;;;;;;;;;;5038851;28;20032;-61
2024/01/26 10:17:39;;;;;;;14.60;9.75;;;;;;;;;;5031139;28;20033;-61
2024/01/26 10:20:18;;;;;;;16.55;10.25;;;;;;;;;;5031475;28;20033;-61
2024/01/26 10:22:45;;;;;;;13.68;9.70;;;;;;;;;;5031113;28;20371;-60
2024/01/26 10:25:14;;;;;;;17.95;11.35;;;;;;;;;;5030645;28;20113;-60
2024/01/26 10:27:40;;;;;;;19.85;12.07;;;;;;;;;;5031731;28;20033;-61
2024/01/26 10:30:07;;;;;;;17.48;10.77;;;;;;;;;;5035398;28;20481;-60
2024/01/26 10:32:33;;;;;;;18.40;11.15;;;;;;;;;;5049587;28;20025;-60
2024/01/26 10:35:00;;;;;;;17.77;11.40;;;;;;;;;;5046066;28;20034;-60
2024/01/26 10:37:28;;;;;;;16.23;10.98;;;;;;;;;;5050290;28;20051;-60
2024/01/26 10:39:55;;;;;;;12.02;8.07;;;;;;;;;;5050990;28;20021;-60
2024/01/26 10:42:21;;;;;;;13.63;9.23;;;;;;;;;;5050148;28;20115;-61
2024/01/26 10:44:51;;;;;;;11.82;8.52;;;;;;;;;;5050994;28;20408;-60
2024/01/26 10:47:17;;;;;;;6.45;4.28;;;;;;;;;;5050075;28;20027;-59
2024/01/26 10:49:48;;;;;;;8.57;3.95;;;;;;;;;;5049369;28;20029;-60
2024/01/26 10:52:17;;;;;;;5.90;3.58;;;;;;;;;;5049953;28;20435;-59
2024/01/26 10:54:46;;;;;;;6.03;3.10;;;;;;;;;;5049231;28;20056;-60
2024/01/26 10:57:12;;;;;;;6.45;3.42;;;;;;;;;;5049548;28;20075;-61
2024/01/26 10:59:40;;;;;;;4.20;2.75;;;;;;;;;;5051128;28;20446;-60
2024/01/26 11:02:10;;;;;;;4.28;2.30;;;;;;;;;;5049385;28;20025;-60
2024/01/26 11:04:35;;;;;;;4.70;2.20;;;;;;;;;;5054432;28;20067;-59
2024/01/26 11:07:01;;;;;;;4.28;2.30;;;;;;;;;;5054783;28;20061;-60
2024/01/26 11:09:32;;;;;;;3.65;1.55;;;;;;;;;;5053797;28;20037;-62
2024/01/26 11:11:58;;;;;;;4.40;1.60;;;;;;;;;;5052562;28;20029;-61
2024/01/26 11:14:27;;;;;;;6.43;1.80;;;;;;;;;;5052807;28;20033;-62
2024/01/26 11:16:53;;;;;;;8.02;1.67;;;;;;;;;;5042756;28;20060;-61
2024/01/26 11:19:22;;;;;;;6.45;1.88;;;;;;;;;;5053037;28;20033;-61
2024/01/26 11:21:48;;;;;;;3.63;1.42;;;;;;;;;;5053103;28;20032;-60
2024/01/26 11:24:15;;;;;;;5.03;1.50;;;;;;;;;;5046649;28;20483;-61
2024/01/26 11:26:41;;;;;;;2.95;1.27;;;;;;;;;;5054243;28;20036;-61
2024/01/26 11:29:14;;;;;;;3.65;1.25;;;;;;;;;;5049593;28;20035;-60
2024/01/26 11:31:42;;;;;;;5.05;1.40;;;;;;;;;;5053528;28;20044;-60
2024/01/26 11:34:23;;;;;;;4.30;0.93;;;;;;;;;;5047010;28;20109;-61
2024/01/26 11:37:04;;;;;;;11.90;1.58;;;;;;;;;;5034124;28;20461;-61
2024/01/26 11:39:32;;;;;;;5.57;1.20;;;;;;;;;;5046532;28;20366;-61
2024/01/26 11:41:58;;;;;;;4.68;1.15;;;;;;;;;;5054906;28;20461;-61
2024/01/26 11:44:30;;;;;;;4.25;1.30;;;;;;;;;;5045139;28;20057;-61
2024/01/26 11:46:56;;;;;;;4.40;1.30;;;;;;;;;;5048909;28;20060;-61
2024/01/26 11:49:21;;;;;;;5.70;1.38;;;;;;;;;;5040554;28;20026;-61
2024/01/26 11:51:47;;;;;;;3.45;1.40;;;;;;;;;;5037761;28;20029;-61
2024/01/26 11:54:13;;;;;;;4.75;1.20;;;;;;;;;;5051788;28;20032;-61
2024/01/26 11:56:38;;;;;;;7.43;1.60;;;;;;;;;;5051447;28;20454;-61
2024/01/26 11:59:06;;;;;;;8.10;1.38;;;;;;;;;;5034780;28;20040;-62
2024/01/26 12:01:32;;;;;;;4.13;1.30;;;;;;;;;;5052774;28;20099;-62
2024/01/26 12:03:57;;;;;;;5.90;1.10;;;;;;;;;;5052017;28;20421;-60
2024/01/26 12:06:22;;;;;;;4.72;1.27;;;;;;;;;;5051228;28;20037;-61
2024/01/26 12:08:48;;;;;;;5.32;1.50;;;;;;;;;;5053538;28;20053;-61
2024/01/26 12:11:13;;;;;;;9.38;1.92;;;;;;;;;;5051982;28;20116;-61
2024/01/26 12:13:39;;;;;;;9.50;1.85;;;;;;;;;;5052016;28;20466;-61
2024/01/26 12:16:06;;;;;;;7.57;1.67;;;;;;;;;;5052693;28;20029;-62
2024/01/26 12:18:31;;;;;;;6.13;1.45;;;;;;;;;;5052159;28;20110;-61
2024/01/26 12:20:57;;;;;;;4.47;1.35;;;;;;;;;;5053274;28;20025;-61
2024/01/26 12:23:22;;;;;;;13.38;2.20;;;;;;;;;;5052026;28;20056;-61
2024/01/26 12:25:52;;;;;;;4.00;1.58;;;;;;;;;;5052486;28;20469;-63
2024/01/26 12:28:18;;;;;;;5.90;1.83;;;;;;;;;;5039874;28;20041;-62
2024/01/26 12:30:47;;;;;;;5.90;1.33;;;;;;;;;;5033672;28;20143;-61
2024/01/26 12:33:13;;;;;;;8.02;1.50;;;;;;;;;;5045416;28;20039;-64
2024/01/26 12:35:41;;;;;;;3.88;1.33;;;;;;;;;;5054501;28;20037;-63
2024/01/26 12:38:11;;;;;;;4.60;1.48;;;;;;;;;;5052906;28;20029;-62
2024/01/26 12:40:36;;;;;;;6.40;1.33;;;;;;;;;;5048360;28;20040;-62
2024/01/26 12:43:03;;;;;;;5.85;1.33;;;;;;;;;;5045293;28;20378;-63
2024/01/26 12:45:28;;;;;;;7.45;1.70;;;;;;;;;;5050337;28;20424;-63
2024/01/26 12:47:54;;;;;;;7.15;1.48;;;;;;;;;;5052279;28;20037;-62
2024/01/26 12:50:20;;;;;;;8.50;1.35;;;;;;;;;;5035234;28;20033;-62
2024/01/26 12:52:46;;;;;;;7.55;1.90;;;;;;;;;;5051509;28;20040;-63
2024/01/26 12:55:12;;;;;;;12.77;1.80;;;;;;;;;;5038335;28;20466;-61
2024/01/26 12:57:37;;;;;;;4.80;1.27;;;;;;;;;;5032501;28;20030;-63
2024/01/26 13:00:03;;;;;;;8.02;1.45;;;;;;;;;;5032622;28;20045;-63
2024/01/26 13:02:29;;;;;;;10.00;1.60;;;;;;;;;;5036328;28;20033;-63
2024/01/26 13:04:54;;;;;;;6.15;1.52;;;;;;;;;;5052494;28;20025;-63
2024/01/26 13:07:21;;;;;;;9.82;1.63;;;;;;;;;;5051256;28;20355;-63
2024/01/26 13:09:48;;;;;;;3.67;1.52;;;;;;;;;;5051869;28;20111;-63
2024/01/26 13:12:14;;;;;;;4.07;1.27;;;;;;;;;;5034133;28;20037;-63
2024/01/26 13:14:40;;;;;;;14.00;2.15;;;;;;;;;;5032155;28;20078;-63
2024/01/26 13:17:06;;;;;;;5.93;1.73;;;;;;;;;;5032633;28;20036;-63
2024/01/26 13:19:32;;;;;;;7.40;1.67;;;;;;;;;;5031192;28;20030;-63
2024/01/26 13:21:57;;;;;;;3.88;1.50;;;;;;;;;;5035250;28;20058;-62
2024/01/26 13:24:23;;;;;;;8.68;2.35;;;;;;;;;;5039773;28;20058;-63
2024/01/26 13:26:49;;;;;;;8.70;1.73;;;;;;;;;;5051835;28;20028;-63
2024/01/26 13:29:15;;;;;;;10.10;1.80;;;;;;;;;;5039429;28;20079;-63
2024/01/26 13:31:40;;;;;;;8.43;2.05;;;;;;;;;;5031478;28;20116;-63
2024/01/26 13:34:07;;;;;;;9.73;2.03;;;;;;;;;;5032031;28;20371;-63
2024/01/26 13:36:33;;;;;;;5.95;1.58;;;;;;;;;;5031882;28;20082;-63
2024/01/26 13:38:58;;;;;;;7.72;1.55;;;;;;;;;;5049663;28;20099;-62
2024/01/26 13:41:24;;;;;;;9.25;2.13;;;;;;;;;;5049323;28;20033;-62
2024/01/26 13:43:49;;;;;;;6.60;1.80;;;;;;;;;;5051935;28;20036;-63
2024/01/26 13:46:15;;;;;;;9.68;2.00;;;;;;;;;;5051323;28;20036;-63
2024/01/26 13:48:40;;;;;;;8.27;2.15;;;;;;;;;;5034442;28;20044;-64
2024/01/26 13:51:06;;;;;;;8.07;1.70;;;;;;;;;;5041102;28;20025;-63
2024/01/26 13:53:31;;;;;;;9.63;1.92;;;;;;;;;;5047626;28;20036;-62
2024/01/26 13:55:57;;;;;;;5.47;1.50;;;;;;;;;;5037458;28;20068;-64
2024/01/26 13:58:23;;;;;;;6.25;1.52;;;;;;;;;;5030847;28;20185;-64
2024/01/26 14:00:48;;;;;;;8.38;2.35;;;;;;;;;;5032004;28;20112;-63
2024/01/26 14:03:14;;;;;;;10.27;1.92;;;;;;;;;;5031049;28;20045;-62
2024/01/26 14:05:43;;;;;;;5.50;1.60;;;;;;;;;;5046559;28;20080;-63
2024/01/26 14:08:08;;;;;;;8.38;1.67;;;;;;;;;;5031482;28;20025;-63
2024/01/26 14:10:39;;;;;;;11.20;2.10;;;;;;;;;;5032985;28;20029;-62
2024/01/26 14:13:07;;;;;;;9.20;1.93;;;;;;;;;;5051592;28;20452;-63
2024/01/26 14:15:33;;;;;;;10.05;2.15;;;;;;;;;;5050724;28;20051;-63
2024/01/26 14:17:59;;;;;;;8.90;2.38;;;;;;;;;;5050138;28;20041;-64
2024/01/26 14:20:24;;;;;;;11.10;2.00;;;;;;;;;;5049797;28;20083;-65
2024/01/26 14:22:51;;;;;;;8.25;2.22;;;;;;;;;;5050858;28;20200;-64